sensor_id;sensor_type;location;lat;lon;timestamp;P1;durP1;ratioP1;P2;durP2;ratioP2
37945;SDS011;23769;52.478;13.448;2023-05-20T00:02:19;6.93;;;3.05;;
37945;SDS011;23769;52.478;13.448;2023-05-20T00:04:46;5.28;;;3.13;;
37945;SDS011;23769;52.478;13.448;2023-05-20T00:07:14;5.97;;;2.97;;
37945;SDS011;23769;52.478;13.448;2023-05-20T00:09:41;7.43;;;3.42;;
37945;SDS011;23769;52.478;13.448;2023-05-20T00:12:08;4.45;;;2.83;;
37945;SDS011;23769;52.478;13.448;2023-05-20T00:14:35;4.82;;;2.65;;
37945;SDS011;23769;52.478;13.448;2023-05-20T00:17:03;6.20;;;3.78;;
37945;SDS011;23769;52.478;13.448;2023-05-20T00:19:31;5.15;;;2.80;;
37945;SDS011;23769;52.478;13.448;2023-05-20T00:21:58;5.65;;;3.10;;
37945;SDS011;23769;52.478;13.448;2023-05-20T00:24:26;5.70;;;3.08;;
37945;SDS011;23769;52.478;13.448;2023-05-20T00:26:53;4.55;;;2.63;;
37945;SDS011;23769;52.478;13.448;2023-05-20T00:29:20;4.43;;;3.05;;
37945;SDS011;23769;52.478;13.448;2023-05-20T00:31:47;4.38;;;2.97;;
37945;SDS011;23769;52.478;13.448;2023-05-20T00:34:15;7.28;;;3.00;;
37945;SDS011;23769;52.478;13.448;2023-05-20T00:36:43;6.05;;;2.72;;
37945;SDS011;23769;52.478;13.448;2023-05-20T00:39:10;6.13;;;2.70;;
37945;SDS011;23769;52.478;13.448;2023-05-20T00:41:38;8.50;;;3.30;;
37945;SDS011;23769;52.478;13.448;2023-05-20T00:44:05;4.82;;;3.13;;
37945;SDS011;23769;52.478;13.448;2023-05-20T00:46:32;6.45;;;3.22;;
37945;SDS011;23769;52.478;13.448;2023-05-20T00:48:59;6.78;;;3.15;;
37945;SDS011;23769;52.478;13.448;2023-05-20T00:51:26;8.93;;;2.88;;
37945;SDS011;23769;52.478;13.448;2023-05-20T00:53:55;6.13;;;2.55;;
37945;SDS011;23769;52.478;13.448;2023-05-20T00:56:22;6.32;;;3.20;;
37945;SDS011;23769;52.478;13.448;2023-05-20T00:58:50;6.75;;;4.05;;
37945;SDS011;23769;52.478;13.448;2023-05-20T01:01:18;7.22;;;3.40;;
37945;SDS011;23769;52.478;13.448;2023-05-20T01:03:45;6.10;;;3.50;;
37945;SDS011;23769;52.478;13.448;2023-05-20T01:06:13;6.45;;;3.22;;
37945;SDS011;23769;52.478;13.448;2023-05-20T01:08:40;5.72;;;3.20;;
37945;SDS011;23769;52.478;13.448;2023-05-20T01:11:10;6.65;;;3.38;;
37945;SDS011;23769;52.478;13.448;2023-05-20T01:13:40;6.03;;;3.33;;
37945;SDS011;23769;52.478;13.448;2023-05-20T01:16:09;5.80;;;4.00;;
37945;SDS011;23769;52.478;13.448;2023-05-20T01:18:36;7.30;;;3.35;;
37945;SDS011;23769;52.478;13.448;2023-05-20T01:21:06;8.95;;;3.60;;
37945;SDS011;23769;52.478;13.448;2023-05-20T01:23:38;5.75;;;3.45;;
37945;SDS011;23769;52.478;13.448;2023-05-20T01:26:06;7.07;;;3.70;;
37945;SDS011;23769;52.478;13.448;2023-05-20T01:28:33;6.68;;;3.95;;
37945;SDS011;23769;52.478;13.448;2023-05-20T01:31:01;6.57;;;3.95;;
37945;SDS011;23769;52.478;13.448;2023-05-20T01:33:29;6.93;;;3.55;;
37945;SDS011;23769;52.478;13.448;2023-05-20T01:35:57;5.68;;;3.60;;
37945;SDS011;23769;52.478;13.448;2023-05-20T01:38:24;8.07;;;3.65;;
37945;SDS011;23769;52.478;13.448;2023-05-20T01:40:53;4.97;;;3.60;;
37945;SDS011;23769;52.478;13.448;2023-05-20T01:43:21;5.05;;;3.20;;
37945;SDS011;23769;52.478;13.448;2023-05-20T01:45:48;6.97;;;3.40;;
37945;SDS011;23769;52.478;13.448;2023-05-20T01:48:15;8.75;;;3.60;;
37945;SDS011;23769;52.478;13.448;2023-05-20T01:50:43;8.25;;;4.22;;
37945;SDS011;23769;52.478;13.448;2023-05-20T01:53:10;5.82;;;3.50;;
37945;SDS011;23769;52.478;13.448;2023-05-20T01:55:37;6.18;;;3.67;;
37945;SDS011;23769;52.478;13.448;2023-05-20T01:58:06;6.45;;;3.85;;
37945;SDS011;23769;52.478;13.448;2023-05-20T02:00:34;6.50;;;3.70;;
37945;SDS011;23769;52.478;13.448;2023-05-20T02:03:01;6.57;;;3.75;;
37945;SDS011;23769;52.478;13.448;2023-05-20T02:05:28;5.85;;;3.40;;
37945;SDS011;23769;52.478;13.448;2023-05-20T02:07:56;6.93;;;4.05;;
37945;SDS011;23769;52.478;13.448;2023-05-20T02:10:25;7.80;;;3.53;;
37945;SDS011;23769;52.478;13.448;2023-05-20T02:12:53;6.50;;;3.60;;
37945;SDS011;23769;52.478;13.448;2023-05-20T02:15:21;4.95;;;3.42;;
37945;SDS011;23769;52.478;13.448;2023-05-20T02:17:48;9.98;;;3.75;;
37945;SDS011;23769;52.478;13.448;2023-05-20T02:20:16;7.43;;;3.60;;
37945;SDS011;23769;52.478;13.448;2023-05-20T02:22:43;5.40;;;3.70;;
37945;SDS011;23769;52.478;13.448;2023-05-20T02:25:10;8.70;;;3.67;;
37945;SDS011;23769;52.478;13.448;2023-05-20T02:27:37;6.25;;;3.97;;
37945;SDS011;23769;52.478;13.448;2023-05-20T02:30:05;6.55;;;3.45;;
37945;SDS011;23769;52.478;13.448;2023-05-20T02:32:34;7.80;;;3.58;;
37945;SDS011;23769;52.478;13.448;2023-05-20T02:35:02;6.63;;;3.47;;
37945;SDS011;23769;52.478;13.448;2023-05-20T02:37:29;9.63;;;3.88;;
37945;SDS011;23769;52.478;13.448;2023-05-20T02:39:56;10.25;;;3.80;;
37945;SDS011;23769;52.478;13.448;2023-05-20T02:42:23;4.85;;;3.28;;
37945;SDS011;23769;52.478;13.448;2023-05-20T02:44:50;5.47;;;3.30;;
37945;SDS011;23769;52.478;13.448;2023-05-20T02:47:20;8.05;;;3.65;;
37945;SDS011;23769;52.478;13.448;2023-05-20T02:49:49;6.07;;;3.53;;
37945;SDS011;23769;52.478;13.448;2023-05-20T02:52:16;6.90;;;3.88;;
37945;SDS011;23769;52.478;13.448;2023-05-20T02:54:43;7.75;;;3.50;;
37945;SDS011;23769;52.478;13.448;2023-05-20T02:57:10;6.45;;;4.22;;
37945;SDS011;23769;52.478;13.448;2023-05-20T02:59:37;5.88;;;3.55;;
37945;SDS011;23769;52.478;13.448;2023-05-20T03:02:04;7.28;;;4.25;;
37945;SDS011;23769;52.478;13.448;2023-05-20T03:04:32;6.25;;;3.85;;
37945;SDS011;23769;52.478;13.448;2023-05-20T03:07:04;7.07;;;3.75;;
37945;SDS011;23769;52.478;13.448;2023-05-20T03:09:31;5.95;;;3.60;;
37945;SDS011;23769;52.478;13.448;2023-05-20T03:11:58;8.05;;;3.78;;
37945;SDS011;23769;52.478;13.448;2023-05-20T03:14:25;5.93;;;3.50;;
37945;SDS011;23769;52.478;13.448;2023-05-20T03:16:53;6.53;;;3.38;;
37945;SDS011;23769;52.478;13.448;2023-05-20T03:19:21;6.05;;;4.40;;
37945;SDS011;23769;52.478;13.448;2023-05-20T03:21:48;7.88;;;3.47;;
37945;SDS011;23769;52.478;13.448;2023-05-20T03:24:17;6.95;;;3.40;;
37945;SDS011;23769;52.478;13.448;2023-05-20T03:26:44;8.60;;;3.70;;
37945;SDS011;23769;52.478;13.448;2023-05-20T03:29:11;7.97;;;3.05;;
37945;SDS011;23769;52.478;13.448;2023-05-20T03:31:38;6.80;;;3.33;;
37945;SDS011;23769;52.478;13.448;2023-05-20T03:34:06;8.00;;;4.55;;
37945;SDS011;23769;52.478;13.448;2023-05-20T03:36:33;8.52;;;3.80;;
37945;SDS011;23769;52.478;13.448;2023-05-20T03:39:00;8.77;;;4.10;;
37945;SDS011;23769;52.478;13.448;2023-05-20T03:41:29;5.03;;;3.47;;
37945;SDS011;23769;52.478;13.448;2023-05-20T03:43:56;6.78;;;3.10;;
37945;SDS011;23769;52.478;13.448;2023-05-20T03:46:24;5.68;;;3.78;;
37945;SDS011;23769;52.478;13.448;2023-05-20T03:48:51;7.93;;;3.97;;
37945;SDS011;23769;52.478;13.448;2023-05-20T03:51:18;5.05;;;3.05;;
37945;SDS011;23769;52.478;13.448;2023-05-20T03:53:45;7.88;;;3.58;;
37945;SDS011;23769;52.478;13.448;2023-05-20T03:56:12;6.25;;;3.78;;
37945;SDS011;23769;52.478;13.448;2023-05-20T03:58:41;6.03;;;3.67;;
37945;SDS011;23769;52.478;13.448;2023-05-20T04:01:08;7.00;;;3.60;;
37945;SDS011;23769;52.478;13.448;2023-05-20T04:03:37;8.02;;;3.38;;
37945;SDS011;23769;52.478;13.448;2023-05-20T04:06:05;7.40;;;4.05;;
37945;SDS011;23769;52.478;13.448;2023-05-20T04:08:33;7.40;;;4.30;;
37945;SDS011;23769;52.478;13.448;2023-05-20T04:11:01;8.23;;;4.03;;
37945;SDS011;23769;52.478;13.448;2023-05-20T04:13:28;6.00;;;3.55;;
37945;SDS011;23769;52.478;13.448;2023-05-20T04:15:56;7.15;;;4.05;;
37945;SDS011;23769;52.478;13.448;2023-05-20T04:18:25;9.23;;;3.85;;
37945;SDS011;23769;52.478;13.448;2023-05-20T04:20:54;8.98;;;4.05;;
37945;SDS011;23769;52.478;13.448;2023-05-20T04:23:21;7.88;;;3.88;;
37945;SDS011;23769;52.478;13.448;2023-05-20T04:25:48;7.72;;;3.20;;
37945;SDS011;23769;52.478;13.448;2023-05-20T04:28:15;6.90;;;3.50;;
37945;SDS011;23769;52.478;13.448;2023-05-20T04:30:43;8.70;;;3.95;;
37945;SDS011;23769;52.478;13.448;2023-05-20T04:33:11;8.32;;;3.97;;
37945;SDS011;23769;52.478;13.448;2023-05-20T04:35:39;8.23;;;3.47;;
37945;SDS011;23769;52.478;13.448;2023-05-20T04:38:06;9.50;;;3.92;;
37945;SDS011;23769;52.478;13.448;2023-05-20T04:40:34;9.05;;;3.80;;
37945;SDS011;23769;52.478;13.448;2023-05-20T04:43:01;10.88;;;4.85;;
37945;SDS011;23769;52.478;13.448;2023-05-20T04:45:29;8.55;;;3.90;;
37945;SDS011;23769;52.478;13.448;2023-05-20T04:47:57;6.85;;;4.07;;
37945;SDS011;23769;52.478;13.448;2023-05-20T04:50:27;6.43;;;3.83;;
37945;SDS011;23769;52.478;13.448;2023-05-20T04:52:54;6.35;;;4.40;;
37945;SDS011;23769;52.478;13.448;2023-05-20T04:55:21;9.20;;;3.90;;
37945;SDS011;23769;52.478;13.448;2023-05-20T04:57:49;8.38;;;4.28;;
37945;SDS011;23769;52.478;13.448;2023-05-20T05:00:17;6.32;;;4.50;;
37945;SDS011;23769;52.478;13.448;2023-05-20T05:02:44;10.25;;;4.45;;
37945;SDS011;23769;52.478;13.448;2023-05-20T05:05:11;9.73;;;4.65;;
37945;SDS011;23769;52.478;13.448;2023-05-20T05:07:40;6.70;;;4.05;;
37945;SDS011;23769;52.478;13.448;2023-05-20T05:10:07;7.32;;;4.22;;
37945;SDS011;23769;52.478;13.448;2023-05-20T05:12:34;11.73;;;5.10;;
37945;SDS011;23769;52.478;13.448;2023-05-20T05:15:02;7.07;;;4.25;;
37945;SDS011;23769;52.478;13.448;2023-05-20T05:17:30;8.70;;;4.75;;
37945;SDS011;23769;52.478;13.448;2023-05-20T05:19:57;6.90;;;4.32;;
37945;SDS011;23769;52.478;13.448;2023-05-20T05:22:24;7.35;;;4.35;;
37945;SDS011;23769;52.478;13.448;2023-05-20T05:25:02;8.77;;;4.95;;
37945;SDS011;23769;52.478;13.448;2023-05-20T05:27:29;8.18;;;4.43;;
37945;SDS011;23769;52.478;13.448;2023-05-20T05:29:56;6.90;;;4.22;;
37945;SDS011;23769;52.478;13.448;2023-05-20T05:32:24;9.25;;;4.53;;
37945;SDS011;23769;52.478;13.448;2023-05-20T05:34:56;9.27;;;4.85;;
37945;SDS011;23769;52.478;13.448;2023-05-20T05:37:23;8.88;;;4.95;;
37945;SDS011;23769;52.478;13.448;2023-05-20T05:39:50;7.38;;;4.50;;
37945;SDS011;23769;52.478;13.448;2023-05-20T05:42:19;8.27;;;4.90;;
37945;SDS011;23769;52.478;13.448;2023-05-20T05:44:46;11.88;;;4.90;;
37945;SDS011;23769;52.478;13.448;2023-05-20T05:47:13;9.55;;;5.07;;
37945;SDS011;23769;52.478;13.448;2023-05-20T05:49:41;9.18;;;4.93;;
37945;SDS011;23769;52.478;13.448;2023-05-20T05:52:08;8.98;;;4.75;;
37945;SDS011;23769;52.478;13.448;2023-05-20T05:54:35;10.05;;;5.00;;
37945;SDS011;23769;52.478;13.448;2023-05-20T05:57:02;9.80;;;4.55;;
37945;SDS011;23769;52.478;13.448;2023-05-20T05:59:31;9.93;;;4.80;;
37945;SDS011;23769;52.478;13.448;2023-05-20T06:01:58;8.90;;;4.68;;
37945;SDS011;23769;52.478;13.448;2023-05-20T06:04:25;10.68;;;4.97;;
37945;SDS011;23769;52.478;13.448;2023-05-20T06:06:52;10.15;;;4.53;;
37945;SDS011;23769;52.478;13.448;2023-05-20T06:09:20;9.30;;;5.00;;
37945;SDS011;23769;52.478;13.448;2023-05-20T06:11:47;9.10;;;4.90;;
37945;SDS011;23769;52.478;13.448;2023-05-20T06:14:14;10.30;;;5.20;;
37945;SDS011;23769;52.478;13.448;2023-05-20T06:16:42;9.85;;;4.88;;
37945;SDS011;23769;52.478;13.448;2023-05-20T06:19:10;9.35;;;5.20;;
37945;SDS011;23769;52.478;13.448;2023-05-20T06:21:37;6.65;;;4.57;;
37945;SDS011;23769;52.478;13.448;2023-05-20T06:24:04;8.20;;;5.00;;
37945;SDS011;23769;52.478;13.448;2023-05-20T06:26:36;11.93;;;5.50;;
37945;SDS011;23769;52.478;13.448;2023-05-20T06:29:04;8.77;;;4.72;;
37945;SDS011;23769;52.478;13.448;2023-05-20T06:31:31;7.72;;;5.32;;
37945;SDS011;23769;52.478;13.448;2023-05-20T06:33:59;11.20;;;5.22;;
37945;SDS011;23769;52.478;13.448;2023-05-20T06:36:27;9.85;;;5.53;;
37945;SDS011;23769;52.478;13.448;2023-05-20T06:38:54;10.60;;;5.18;;
37945;SDS011;23769;52.478;13.448;2023-05-20T06:41:21;10.85;;;5.20;;
37945;SDS011;23769;52.478;13.448;2023-05-20T06:43:48;9.70;;;5.03;;
37945;SDS011;23769;52.478;13.448;2023-05-20T06:46:15;8.65;;;5.10;;
37945;SDS011;23769;52.478;13.448;2023-05-20T06:48:42;13.30;;;4.95;;
37945;SDS011;23769;52.478;13.448;2023-05-20T06:51:11;8.15;;;5.10;;
37945;SDS011;23769;52.478;13.448;2023-05-20T06:53:39;8.02;;;4.70;;
37945;SDS011;23769;52.478;13.448;2023-05-20T06:56:06;11.52;;;4.85;;
37945;SDS011;23769;52.478;13.448;2023-05-20T06:58:33;8.82;;;5.13;;
37945;SDS011;23769;52.478;13.448;2023-05-20T07:01:00;11.68;;;5.47;;
37945;SDS011;23769;52.478;13.448;2023-05-20T07:03:27;12.50;;;5.38;;
37945;SDS011;23769;52.478;13.448;2023-05-20T07:05:55;6.53;;;4.68;;
37945;SDS011;23769;52.478;13.448;2023-05-20T07:08:23;8.95;;;4.68;;
37945;SDS011;23769;52.478;13.448;2023-05-20T07:10:50;8.45;;;4.60;;
37945;SDS011;23769;52.478;13.448;2023-05-20T07:13:17;8.55;;;4.93;;
37945;SDS011;23769;52.478;13.448;2023-05-20T07:15:47;8.82;;;4.85;;
37945;SDS011;23769;52.478;13.448;2023-05-20T07:18:15;7.70;;;4.70;;
37945;SDS011;23769;52.478;13.448;2023-05-20T07:20:42;7.65;;;4.32;;
37945;SDS011;23769;52.478;13.448;2023-05-20T07:23:09;8.88;;;4.28;;
37945;SDS011;23769;52.478;13.448;2023-05-20T07:25:38;5.22;;;4.07;;
37945;SDS011;23769;52.478;13.448;2023-05-20T07:28:05;8.07;;;4.75;;
37945;SDS011;23769;52.478;13.448;2023-05-20T07:30:32;7.45;;;4.70;;
37945;SDS011;23769;52.478;13.448;2023-05-20T07:33:00;9.40;;;4.85;;
37945;SDS011;23769;52.478;13.448;2023-05-20T07:35:27;8.80;;;4.43;;
37945;SDS011;23769;52.478;13.448;2023-05-20T07:37:54;7.15;;;4.07;;
37945;SDS011;23769;52.478;13.448;2023-05-20T07:40:22;8.38;;;4.45;;
37945;SDS011;23769;52.478;13.448;2023-05-20T07:42:50;7.78;;;5.38;;
37945;SDS011;23769;52.478;13.448;2023-05-20T07:45:17;7.57;;;4.35;;
37945;SDS011;23769;52.478;13.448;2023-05-20T07:47:44;7.88;;;4.60;;
37945;SDS011;23769;52.478;13.448;2023-05-20T07:50:12;8.10;;;4.57;;
37945;SDS011;23769;52.478;13.448;2023-05-20T07:52:39;11.05;;;4.53;;
37945;SDS011;23769;52.478;13.448;2023-05-20T07:55:06;7.97;;;4.40;;
37945;SDS011;23769;52.478;13.448;2023-05-20T07:57:34;7.93;;;4.72;;
37945;SDS011;23769;52.478;13.448;2023-05-20T08:00:02;7.32;;;4.55;;
37945;SDS011;23769;52.478;13.448;2023-05-20T08:02:30;7.13;;;4.72;;
37945;SDS011;23769;52.478;13.448;2023-05-20T08:04:57;6.85;;;4.68;;
37945;SDS011;23769;52.478;13.448;2023-05-20T08:07:24;9.07;;;4.57;;
37945;SDS011;23769;52.478;13.448;2023-05-20T08:09:52;6.55;;;4.40;;
37945;SDS011;23769;52.478;13.448;2023-05-20T08:12:19;6.63;;;4.35;;
37945;SDS011;23769;52.478;13.448;2023-05-20T08:14:46;7.72;;;3.92;;
37945;SDS011;23769;52.478;13.448;2023-05-20T08:17:17;7.47;;;4.40;;
37945;SDS011;23769;52.478;13.448;2023-05-20T08:19:44;4.38;;;3.45;;
37945;SDS011;23769;52.478;13.448;2023-05-20T08:22:11;7.43;;;4.53;;
37945;SDS011;23769;52.478;13.448;2023-05-20T08:24:39;8.35;;;4.40;;
37945;SDS011;23769;52.478;13.448;2023-05-20T08:27:11;6.50;;;4.18;;
37945;SDS011;23769;52.478;13.448;2023-05-20T08:29:38;6.50;;;4.22;;
37945;SDS011;23769;52.478;13.448;2023-05-20T08:32:06;7.47;;;3.97;;
37945;SDS011;23769;52.478;13.448;2023-05-20T08:34:34;5.75;;;4.15;;
37945;SDS011;23769;52.478;13.448;2023-05-20T08:37:02;7.25;;;4.55;;
37945;SDS011;23769;52.478;13.448;2023-05-20T08:39:29;7.80;;;4.50;;
37945;SDS011;23769;52.478;13.448;2023-05-20T08:41:59;6.68;;;4.38;;
37945;SDS011;23769;52.478;13.448;2023-05-20T08:44:27;5.45;;;4.20;;
37945;SDS011;23769;52.478;13.448;2023-05-20T08:46:55;6.00;;;3.90;;
37945;SDS011;23769;52.478;13.448;2023-05-20T08:49:22;7.45;;;4.18;;
37945;SDS011;23769;52.478;13.448;2023-05-20T08:51:54;7.43;;;4.00;;
37945;SDS011;23769;52.478;13.448;2023-05-20T08:54:21;6.63;;;4.00;;
37945;SDS011;23769;52.478;13.448;2023-05-20T08:56:50;5.57;;;3.88;;
37945;SDS011;23769;52.478;13.448;2023-05-20T08:59:20;8.23;;;5.00;;
37945;SDS011;23769;52.478;13.448;2023-05-20T09:01:47;11.32;;;4.35;;
37945;SDS011;23769;52.478;13.448;2023-05-20T09:04:14;6.80;;;4.10;;
37945;SDS011;23769;52.478;13.448;2023-05-20T09:06:42;7.32;;;4.50;;
37945;SDS011;23769;52.478;13.448;2023-05-20T09:09:15;6.03;;;4.25;;
37945;SDS011;23769;52.478;13.448;2023-05-20T09:11:42;6.30;;;4.80;;
37945;SDS011;23769;52.478;13.448;2023-05-20T09:14:09;7.35;;;4.20;;
37945;SDS011;23769;52.478;13.448;2023-05-20T09:16:40;6.38;;;4.35;;
37945;SDS011;23769;52.478;13.448;2023-05-20T09:19:07;8.55;;;4.78;;
37945;SDS011;23769;52.478;13.448;2023-05-20T09:21:34;8.25;;;5.00;;
37945;SDS011;23769;52.478;13.448;2023-05-20T09:24:03;7.55;;;5.18;;
37945;SDS011;23769;52.478;13.448;2023-05-20T09:26:32;8.48;;;5.30;;
37945;SDS011;23769;52.478;13.448;2023-05-20T09:28:59;8.00;;;5.50;;
37945;SDS011;23769;52.478;13.448;2023-05-20T09:31:26;11.15;;;6.07;;
37945;SDS011;23769;52.478;13.448;2023-05-20T09:33:53;8.52;;;5.55;;
37945;SDS011;23769;52.478;13.448;2023-05-20T09:36:21;9.27;;;6.18;;
37945;SDS011;23769;52.478;13.448;2023-05-20T09:38:49;9.30;;;6.18;;
37945;SDS011;23769;52.478;13.448;2023-05-20T09:41:18;9.90;;;6.60;;
37945;SDS011;23769;52.478;13.448;2023-05-20T09:43:47;10.80;;;7.28;;
37945;SDS011;23769;52.478;13.448;2023-05-20T09:46:16;10.35;;;7.20;;
37945;SDS011;23769;52.478;13.448;2023-05-20T09:48:44;11.60;;;7.43;;
37945;SDS011;23769;52.478;13.448;2023-05-20T09:51:11;9.77;;;6.32;;
37945;SDS011;23769;52.478;13.448;2023-05-20T09:53:39;9.68;;;7.25;;
37945;SDS011;23769;52.478;13.448;2023-05-20T09:56:07;10.00;;;6.82;;
37945;SDS011;23769;52.478;13.448;2023-05-20T09:58:35;10.43;;;6.45;;
37945;SDS011;23769;52.478;13.448;2023-05-20T10:01:03;10.88;;;6.75;;
37945;SDS011;23769;52.478;13.448;2023-05-20T10:03:33;11.00;;;7.35;;
37945;SDS011;23769;52.478;13.448;2023-05-20T10:06:12;10.02;;;7.00;;
37945;SDS011;23769;52.478;13.448;2023-05-20T10:08:52;9.55;;;6.45;;
37945;SDS011;23769;52.478;13.448;2023-05-20T10:11:23;11.35;;;7.65;;
37945;SDS011;23769;52.478;13.448;2023-05-20T10:14:05;11.20;;;7.10;;
37945;SDS011;23769;52.478;13.448;2023-05-20T10:16:48;12.90;;;7.88;;
37945;SDS011;23769;52.478;13.448;2023-05-20T10:19:19;11.45;;;7.45;;
37945;SDS011;23769;52.478;13.448;2023-05-20T10:21:55;11.18;;;7.03;;
37945;SDS011;23769;52.478;13.448;2023-05-20T10:24:28;12.38;;;8.07;;
37945;SDS011;23769;52.478;13.448;2023-05-20T10:26:56;9.23;;;7.13;;
37945;SDS011;23769;52.478;13.448;2023-05-20T10:29:23;10.38;;;7.15;;
37945;SDS011;23769;52.478;13.448;2023-05-20T10:31:52;9.90;;;6.40;;
37945;SDS011;23769;52.478;13.448;2023-05-20T10:34:20;9.80;;;6.90;;
37945;SDS011;23769;52.478;13.448;2023-05-20T10:36:56;12.57;;;7.50;;
37945;SDS011;23769;52.478;13.448;2023-05-20T10:39:24;10.80;;;6.47;;
37945;SDS011;23769;52.478;13.448;2023-05-20T10:41:52;10.45;;;6.47;;
37945;SDS011;23769;52.478;13.448;2023-05-20T10:44:19;11.02;;;7.28;;
37945;SDS011;23769;52.478;13.448;2023-05-20T10:46:46;11.75;;;7.95;;
37945;SDS011;23769;52.478;13.448;2023-05-20T10:49:33;9.23;;;7.20;;
37945;SDS011;23769;52.478;13.448;2023-05-20T10:52:06;12.38;;;7.38;;
37945;SDS011;23769;52.478;13.448;2023-05-20T10:54:34;13.02;;;8.45;;
37945;SDS011;23769;52.478;13.448;2023-05-20T10:57:05;14.65;;;7.90;;
37945;SDS011;23769;52.478;13.448;2023-05-20T10:59:33;11.73;;;7.30;;
37945;SDS011;23769;52.478;13.448;2023-05-20T11:02:01;11.80;;;8.00;;
37945;SDS011;23769;52.478;13.448;2023-05-20T11:04:28;10.70;;;7.70;;
37945;SDS011;23769;52.478;13.448;2023-05-20T11:06:57;11.48;;;7.63;;
37945;SDS011;23769;52.478;13.448;2023-05-20T11:09:24;11.43;;;7.63;;
37945;SDS011;23769;52.478;13.448;2023-05-20T11:11:52;9.13;;;7.38;;
37945;SDS011;23769;52.478;13.448;2023-05-20T11:14:20;10.38;;;7.50;;
37945;SDS011;23769;52.478;13.448;2023-05-20T11:16:50;14.13;;;7.65;;
37945;SDS011;23769;52.478;13.448;2023-05-20T11:19:18;10.65;;;7.28;;
37945;SDS011;23769;52.478;13.448;2023-05-20T11:21:45;10.95;;;7.32;;
37945;SDS011;23769;52.478;13.448;2023-05-20T11:24:21;9.10;;;7.03;;
37945;SDS011;23769;52.478;13.448;2023-05-20T11:26:48;9.82;;;8.00;;
37945;SDS011;23769;52.478;13.448;2023-05-20T11:29:16;10.98;;;8.25;;
37945;SDS011;23769;52.478;13.448;2023-05-20T11:31:43;10.95;;;7.97;;
37945;SDS011;23769;52.478;13.448;2023-05-20T11:34:11;10.45;;;6.95;;
37945;SDS011;23769;52.478;13.448;2023-05-20T11:36:39;10.40;;;7.40;;
37945;SDS011;23769;52.478;13.448;2023-05-20T11:39:08;10.10;;;6.97;;
37945;SDS011;23769;52.478;13.448;2023-05-20T11:41:37;11.73;;;7.28;;
37945;SDS011;23769;52.478;13.448;2023-05-20T11:44:06;12.75;;;7.40;;
37945;SDS011;23769;52.478;13.448;2023-05-20T11:46:39;10.45;;;6.97;;
37945;SDS011;23769;52.478;13.448;2023-05-20T11:49:07;16.92;;;8.43;;
37945;SDS011;23769;52.478;13.448;2023-05-20T11:51:34;9.10;;;7.50;;
37945;SDS011;23769;52.478;13.448;2023-05-20T11:54:06;9.82;;;7.40;;
37945;SDS011;23769;52.478;13.448;2023-05-20T11:56:34;10.20;;;7.40;;
37945;SDS011;23769;52.478;13.448;2023-05-20T11:59:03;11.73;;;7.93;;
37945;SDS011;23769;52.478;13.448;2023-05-20T12:01:31;9.55;;;7.07;;
37945;SDS011;23769;52.478;13.448;2023-05-20T12:04:02;12.10;;;7.65;;
37945;SDS011;23769;52.478;13.448;2023-05-20T12:06:30;10.15;;;8.02;;
37945;SDS011;23769;52.478;13.448;2023-05-20T12:09:00;11.30;;;8.18;;
37945;SDS011;23769;52.478;13.448;2023-05-20T12:11:30;10.27;;;7.63;;
37945;SDS011;23769;52.478;13.448;2023-05-20T12:13:57;13.82;;;8.10;;
37945;SDS011;23769;52.478;13.448;2023-05-20T12:16:26;10.23;;;7.45;;
37945;SDS011;23769;52.478;13.448;2023-05-20T12:18:53;11.50;;;7.22;;
37945;SDS011;23769;52.478;13.448;2023-05-20T12:21:20;8.93;;;7.25;;
37945;SDS011;23769;52.478;13.448;2023-05-20T12:23:48;10.45;;;7.25;;
37945;SDS011;23769;52.478;13.448;2023-05-20T12:26:21;11.55;;;7.15;;
37945;SDS011;23769;52.478;13.448;2023-05-20T12:28:48;12.05;;;8.23;;
37945;SDS011;23769;52.478;13.448;2023-05-20T12:31:15;11.45;;;7.45;;
37945;SDS011;23769;52.478;13.448;2023-05-20T12:33:46;13.60;;;7.93;;
37945;SDS011;23769;52.478;13.448;2023-05-20T12:36:14;12.15;;;8.10;;
37945;SDS011;23769;52.478;13.448;2023-05-20T12:38:41;11.63;;;7.05;;
37945;SDS011;23769;52.478;13.448;2023-05-20T12:41:10;11.00;;;7.55;;
37945;SDS011;23769;52.478;13.448;2023-05-20T12:43:37;12.57;;;8.30;;
37945;SDS011;23769;52.478;13.448;2023-05-20T12:46:08;14.13;;;8.80;;
37945;SDS011;23769;52.478;13.448;2023-05-20T12:48:35;12.13;;;7.25;;
37945;SDS011;23769;52.478;13.448;2023-05-20T12:51:04;10.73;;;7.35;;
37945;SDS011;23769;52.478;13.448;2023-05-20T12:53:31;10.20;;;7.93;;
37945;SDS011;23769;52.478;13.448;2023-05-20T12:55:58;10.55;;;7.82;;
37945;SDS011;23769;52.478;13.448;2023-05-20T12:58:25;11.50;;;8.07;;
37945;SDS011;23769;52.478;13.448;2023-05-20T13:00:53;11.93;;;7.70;;
37945;SDS011;23769;52.478;13.448;2023-05-20T13:03:20;10.88;;;7.80;;
37945;SDS011;23769;52.478;13.448;2023-05-20T13:05:47;11.45;;;7.38;;
37945;SDS011;23769;52.478;13.448;2023-05-20T13:08:16;12.77;;;7.30;;
37945;SDS011;23769;52.478;13.448;2023-05-20T13:10:43;10.18;;;6.72;;
37945;SDS011;23769;52.478;13.448;2023-05-20T13:13:10;10.85;;;7.63;;
37945;SDS011;23769;52.478;13.448;2023-05-20T13:15:45;13.90;;;8.65;;
37945;SDS011;23769;52.478;13.448;2023-05-20T13:18:13;9.98;;;6.78;;
37945;SDS011;23769;52.478;13.448;2023-05-20T13:20:40;12.00;;;7.82;;
37945;SDS011;23769;52.478;13.448;2023-05-20T13:23:07;8.50;;;7.00;;
37945;SDS011;23769;52.478;13.448;2023-05-20T13:25:36;9.88;;;6.97;;
37945;SDS011;23769;52.478;13.448;2023-05-20T13:28:03;12.10;;;6.22;;
37945;SDS011;23769;52.478;13.448;2023-05-20T13:30:31;10.90;;;7.82;;
37945;SDS011;23769;52.478;13.448;2023-05-20T13:32:58;12.20;;;8.02;;
37945;SDS011;23769;52.478;13.448;2023-05-20T13:35:25;9.98;;;6.70;;
37945;SDS011;23769;52.478;13.448;2023-05-20T13:37:53;11.80;;;7.28;;
37945;SDS011;23769;52.478;13.448;2023-05-20T13:40:20;9.30;;;6.65;;
37945;SDS011;23769;52.478;13.448;2023-05-20T13:42:49;8.85;;;6.45;;
37945;SDS011;23769;52.478;13.448;2023-05-20T13:45:16;12.25;;;6.88;;
37945;SDS011;23769;52.478;13.448;2023-05-20T13:47:43;10.18;;;6.47;;
37945;SDS011;23769;52.478;13.448;2023-05-20T13:50:11;8.73;;;6.53;;
37945;SDS011;23769;52.478;13.448;2023-05-20T13:52:38;9.35;;;6.22;;
37945;SDS011;23769;52.478;13.448;2023-05-20T13:55:06;12.68;;;7.43;;
37945;SDS011;23769;52.478;13.448;2023-05-20T13:57:33;10.18;;;6.93;;
37945;SDS011;23769;52.478;13.448;2023-05-20T14:00:02;10.30;;;6.85;;
37945;SDS011;23769;52.478;13.448;2023-05-20T14:02:29;10.48;;;6.60;;
37945;SDS011;23769;52.478;13.448;2023-05-20T14:04:56;10.02;;;6.65;;
37945;SDS011;23769;52.478;13.448;2023-05-20T14:07:23;11.18;;;7.40;;
37945;SDS011;23769;52.478;13.448;2023-05-20T14:09:51;8.68;;;6.53;;
37945;SDS011;23769;52.478;13.448;2023-05-20T14:12:18;8.40;;;6.50;;
37945;SDS011;23769;52.478;13.448;2023-05-20T14:14:46;8.95;;;6.72;;
37945;SDS011;23769;52.478;13.448;2023-05-20T14:17:15;10.57;;;6.40;;
37945;SDS011;23769;52.478;13.448;2023-05-20T14:19:42;10.02;;;5.90;;
37945;SDS011;23769;52.478;13.448;2023-05-20T14:22:09;8.52;;;6.13;;
37945;SDS011;23769;52.478;13.448;2023-05-20T14:24:39;8.95;;;6.53;;
37945;SDS011;23769;52.478;13.448;2023-05-20T14:27:06;8.00;;;5.80;;
37945;SDS011;23769;52.478;13.448;2023-05-20T14:29:33;9.32;;;6.63;;
37945;SDS011;23769;52.478;13.448;2023-05-20T14:32:01;8.27;;;6.40;;
37945;SDS011;23769;52.478;13.448;2023-05-20T14:34:30;8.25;;;6.03;;
37945;SDS011;23769;52.478;13.448;2023-05-20T14:36:57;11.27;;;6.60;;